This is the latest recevied weather packets stored in our database for station/object F6BIJ-13. If no packets are shown the sender has not sent any weather packets the latest 10 day(s).
| Time | Temp. | Humidity | Pressure | Rain* | Wind** | Luminosity | Snow |
|---|---|---|---|---|---|---|---|
| 1777609837 | 9.44° C | 85% | 1023.7 hPa | 0 mm | - | - | - |
| 1777609477 | 9.44° C | 85% | 1023.7 hPa | 0 mm | - | - | - |
| 1777609116 | 9.44° C | 86% | 1023.6 hPa | 0 mm | - | - | - |
| 1777608757 | 9.44° C | 87% | 1023.6 hPa | 0 mm | - | - | - |
| 1777608397 | 9.44° C | 87% | 1023.7 hPa | 0 mm | - | - | - |
| 1777608037 | 9.44° C | 85% | 1023.6 hPa | 0 mm | - | - | - |
| 1777607677 | 9.44° C | 86% | 1023.7 hPa | 0 mm | - | - | - |
| 1777607317 | 10° C | 87% | 1023.7 hPa | 0 mm | - | - | - |
| 1777606957 | 9.44° C | 88% | 1023.7 hPa | 0 mm | - | - | - |
| 1777606597 | 10° C | 87% | 1023.6 hPa | 0 mm | - | - | - |
| 1777606237 | 9.44° C | 87% | 1023.6 hPa | 0 mm | - | - | - |
| 1777605877 | 10° C | 88% | 1023.5 hPa | 0 mm | - | - | - |
| 1777605518 | 10° C | 87% | 1023.6 hPa | 0 mm | - | - | - |
| 1777605157 | 10° C | 87% | 1023.5 hPa | 0 mm | - | - | - |
| 1777604797 | 10.56° C | 87% | 1023.5 hPa | 0 mm | - | - | - |
| 1777604437 | 10.56° C | 87% | 1023.4 hPa | 0 mm | - | - | - |
| 1777604076 | 10.56° C | 87% | 1023.3 hPa | 0 mm | - | - | - |
| 1777603717 | 10.56° C | 88% | 1023.3 hPa | 0 mm | - | - | - |
| 1777603357 | 10.56° C | 87% | 1023.3 hPa | 0 mm | - | - | - |
| 1777602997 | 10.56° C | 87% | 1023.3 hPa | 0 mm | - | - | - |
| 1777602637 | 10.56° C | 87% | 1023.2 hPa | 0 mm | - | - | - |
| 1777602277 | 11.11° C | 88% | 1023.2 hPa | 0 mm | - | - | - |
| 1777601917 | 10.56° C | 88% | 1023.2 hPa | 0 mm | - | - | - |
| 1777601197 | 11.11° C | 87% | 1023.3 hPa | 0 mm | - | - | - |
| 1777586077 | 13.89° C | 83% | 1022.3 hPa | 0 mm | - | - | - |
* Rain latest 24 hours (hover to see other rain measurements)
** Current wind speed in m/s (hover to see current wind gust speed)